Time;durP1;ratioP1;P1;durP2;ratioP2;P2;SDS_P1;SDS_P2;PMS_P1;PMS_P2;Temp;Humidity;BMP_temperature;BMP_pressure;BME280_temperature;BME280_humidity;BME280_pressure;Samples;Min_cycle;Max_cycle;Signal;HPM_P1;HPM_P2
2023/04/19 00:01:57;;;;;;;2.53;2.53;;;18.10;65.10;;;;;;5064151;28;45141;-78
2023/04/19 00:04:25;;;;;;;2.67;2.63;;;18.30;65.10;;;;;;5064727;28;43463;-77
2023/04/19 00:06:54;;;;;;;2.50;2.50;;;18.40;64.80;;;;;;5066203;28;43882;-77
2023/04/19 00:09:21;;;;;;;2.60;2.60;;;18.40;64.40;;;;;;5063565;28;45663;-77
2023/04/19 00:11:50;;;;;;;2.70;2.70;;;18.40;64.30;;;;;;5064997;28;44845;-77
2023/04/19 00:14:18;;;;;;;2.40;2.40;;;18.40;64.60;;;;;;5065453;28;43442;-77
2023/04/19 00:16:46;;;;;;;2.60;2.60;;;18.40;64.60;;;;;;5066267;28;43459;-77
2023/04/19 00:19:15;;;;;;;2.50;2.50;;;18.40;64.40;;;;;;5060924;28;43866;-77
2023/04/19 00:21:43;;;;;;;2.37;2.37;;;18.30;64.30;;;;;;5065577;28;43480;-76
2023/04/19 00:24:11;;;;;;;2.70;2.70;;;18.30;64.40;;;;;;5065456;28;43387;-76
2023/04/19 00:26:42;;;;;;;2.40;2.30;;;18.30;64.60;;;;;;5061488;28;43415;-76
2023/04/19 00:29:10;;;;;;;2.47;2.47;;;18.20;64.90;;;;;;5063583;28;43946;-76
2023/04/19 00:31:39;;;;;;;2.53;2.53;;;18.20;64.80;;;;;;5064075;28;43991;-77
2023/04/19 00:34:07;;;;;;;2.40;2.40;;;18.20;64.80;;;;;;5063366;28;43443;-76
2023/04/19 00:36:36;;;;;;;2.60;2.60;;;18.20;64.80;;;;;;5065914;28;43800;-77
2023/04/19 00:39:04;;;;;;;2.50;2.50;;;18.20;64.80;;;;;;5064021;28;45986;-74
2023/04/19 00:41:32;;;;;;;2.53;2.50;;;18.20;64.90;;;;;;5065392;28;43379;-77
2023/04/19 00:44:00;;;;;;;2.63;2.63;;;18.10;65.10;;;;;;5064013;28;43462;-72
2023/04/19 00:46:28;;;;;;;2.33;2.33;;;18.10;64.90;;;;;;5064356;28;43365;-76
2023/04/19 00:48:56;;;;;;;2.60;2.60;;;18.20;64.90;;;;;;5064098;28;46033;-76
2023/04/19 00:51:26;;;;;;;2.30;2.30;;;18.20;65.00;;;;;;5065384;28;43997;-77
2023/04/19 00:53:55;;;;;;;2.70;2.70;;;18.10;64.80;;;;;;5063823;28;43450;-76
2023/04/19 00:56:23;;;;;;;2.37;2.37;;;18.10;65.00;;;;;;5069051;28;43549;-77
2023/04/19 00:58:56;;;;;;;2.40;2.40;;;18.10;65.20;;;;;;5067347;28;46008;-76
2023/04/19 01:01:24;;;;;;;2.50;2.50;;;18.20;65.10;;;;;;5067478;28;44745;-76
2023/04/19 01:03:52;;;;;;;2.77;2.60;;;18.30;64.80;;;;;;5068679;28;44046;-75
2023/04/19 01:06:20;;;;;;;3.00;2.90;;;18.40;64.50;;;;;;5055804;28;43562;-75
2023/04/19 01:08:48;;;;;;;2.50;2.50;;;18.40;64.30;;;;;;5067272;28;46095;-76
2023/04/19 01:11:18;;;;;;;2.87;2.87;;;18.40;64.30;;;;;;5067067;28;45227;-76
2023/04/19 01:13:46;;;;;;;2.60;2.60;;;18.40;64.50;;;;;;5068774;28;43387;-76
2023/04/19 01:16:14;;;;;;;2.60;2.60;;;18.40;64.40;;;;;;5069106;28;43437;-77
2023/04/19 01:18:42;;;;;;;2.80;2.80;;;18.30;64.30;;;;;;5061765;28;45450;-76
2023/04/19 01:21:11;;;;;;;2.43;2.43;;;18.30;64.30;;;;;;5069004;28;45121;-77
2023/04/19 01:23:40;;;;;;;2.77;2.67;;;18.30;64.50;;;;;;5068513;28;43995;-76
2023/04/19 01:26:08;;;;;;;2.60;2.60;;;18.20;64.70;;;;;;5068811;28;43409;-76
2023/04/19 01:28:36;;;;;;;2.53;2.53;;;18.20;64.90;;;;;;5063815;28;45858;-76
2023/04/19 01:31:04;;;;;;;2.33;2.33;;;18.20;64.70;;;;;;5066718;28;44470;-77
2023/04/19 01:33:32;;;;;;;2.50;2.50;;;18.20;64.80;;;;;;5068046;28;43601;-76
2023/04/19 01:36:00;;;;;;;2.37;2.37;;;18.20;64.80;;;;;;5067018;28;43645;-76
2023/04/19 01:38:28;;;;;;;2.63;2.63;;;18.20;64.80;;;;;;5068491;28;45622;-77
2023/04/19 01:40:57;;;;;;;2.70;2.70;;;18.20;65.10;;;;;;5056665;28;44956;-76
2023/04/19 01:43:25;;;;;;;2.70;2.70;;;18.20;65.00;;;;;;5067025;28;43968;-75
2023/04/19 01:45:53;;;;;;;2.63;2.53;;;18.20;64.80;;;;;;5066821;28;43518;-77
2023/04/19 01:48:21;;;;;;;2.53;2.53;;;18.20;64.90;;;;;;5066892;28;45836;-76
2023/04/19 01:50:49;;;;;;;2.73;2.73;;;18.20;64.90;;;;;;5068017;28;43437;-76
2023/04/19 01:53:17;;;;;;;2.80;2.80;;;18.10;65.00;;;;;;5055005;28;43417;-77
2023/04/19 01:55:45;;;;;;;2.50;2.50;;;18.10;65.10;;;;;;5067295;28;43877;-76
2023/04/19 01:58:15;;;;;;;2.87;2.77;;;18.20;65.10;;;;;;5066129;28;45922;-77
2023/04/19 02:00:45;;;;;;;2.53;2.53;;;18.30;64.80;;;;;;5066309;28;44860;-77
2023/04/19 02:03:13;;;;;;;2.30;2.30;;;18.40;64.50;;;;;;5066175;28;43901;-76
2023/04/19 02:05:42;;;;;;;2.60;2.60;;;18.40;64.30;;;;;;5050409;28;43491;-76
2023/04/19 02:08:10;;;;;;;2.57;2.57;;;18.40;64.20;;;;;;5067633;28;43910;-76
2023/04/19 02:10:38;;;;;;;2.90;2.90;;;18.40;64.50;;;;;;5066210;28;45123;-77
2023/04/19 02:13:06;;;;;;;2.63;2.63;;;18.40;64.50;;;;;;5049426;28;43431;-77
2023/04/19 02:15:36;;;;;;;2.83;2.83;;;18.40;64.40;;;;;;5066308;28;43653;-77
2023/04/19 02:18:05;;;;;;;2.37;2.37;;;18.30;64.40;;;;;;5065850;28;44058;-76
2023/04/19 02:20:33;;;;;;;2.70;2.70;;;18.30;64.50;;;;;;5065530;28;44466;-76
2023/04/19 02:23:01;;;;;;;2.53;2.53;;;18.30;64.60;;;;;;5067372;28;43648;-74
2023/04/19 02:25:29;;;;;;;2.70;2.70;;;18.20;64.80;;;;;;5066678;28;43673;-76
2023/04/19 02:27:57;;;;;;;2.50;2.50;;;18.30;64.80;;;;;;5062880;28;43856;-76
2023/04/19 02:30:25;;;;;;;2.80;2.80;;;18.20;64.60;;;;;;5065425;28;43722;-77
2023/04/19 02:32:57;;;;;;;2.40;2.40;;;18.20;64.70;;;;;;5053391;28;43459;-77
2023/04/19 02:35:25;;;;;;;2.60;2.60;;;18.20;64.80;;;;;;5066183;28;43441;-76
2023/04/19 02:37:53;;;;;;;2.60;2.60;;;18.20;64.90;;;;;;5065738;28;45807;-77
2023/04/19 02:40:22;;;;;;;2.37;2.37;;;18.20;65.00;;;;;;5047584;28;44868;-74
2023/04/19 02:42:50;;;;;;;2.60;2.60;;;18.30;64.70;;;;;;5079492;27;44092;-77
2023/04/19 02:45:18;;;;;;;2.93;2.90;;;18.40;64.50;;;;;;5067302;28;43605;-77
2023/04/19 02:47:47;;;;;;;2.60;2.60;;;18.40;64.50;;;;;;5063211;28;45643;-77
2023/04/19 02:50:16;;;;;;;2.50;2.50;;;18.30;64.30;;;;;;5065931;28;44886;-77
2023/04/19 02:52:48;;;;;;;2.70;2.70;;;18.30;64.60;;;;;;5064202;28;43479;-76
2023/04/19 02:55:17;;;;;;;2.57;2.57;;;18.30;64.60;;;;;;5059814;28;43894;-72
2023/04/19 02:57:48;;;;;;;2.43;2.43;;;18.30;64.50;;;;;;5065348;28;45426;-77
2023/04/19 03:00:17;;;;;;;2.73;2.73;;;18.30;64.60;;;;;;5065159;28;44765;-76
2023/04/19 03:02:58;;;;;;;2.83;2.83;;;18.20;64.60;;;;;;5065488;28;43454;-75
2023/04/19 03:05:29;;;;;;;3.00;2.90;;;18.20;64.80;;;;;;5053087;28;43442;-76
2023/04/19 03:07:57;;;;;;;2.40;2.40;;;18.20;64.80;;;;;;5065467;28;46023;-76
2023/04/19 03:10:25;;;;;;;2.47;2.47;;;18.20;64.70;;;;;;5065576;28;43478;-77
2023/04/19 03:12:54;;;;;;;2.33;2.33;;;18.20;64.70;;;;;;5065241;28;43455;-77
2023/04/19 03:15:22;;;;;;;2.07;2.07;;;18.20;64.80;;;;;;5065239;28;43475;-75
2023/04/19 03:17:52;;;;;;;2.50;2.50;;;18.20;64.80;;;;;;5063029;28;45981;-75
2023/04/19 03:20:22;;;;;;;2.70;2.70;;;18.10;64.90;;;;;;5062838;28;45372;-77
2023/04/19 03:22:51;;;;;;;2.67;2.67;;;18.20;65.10;;;;;;5065085;28;43425;-77
2023/04/19 03:25:20;;;;;;;2.40;2.40;;;18.30;64.90;;;;;;5065483;28;43610;-77
2023/04/19 03:27:56;;;;;;;2.53;2.53;;;18.30;64.50;;;;;;5062674;28;43823;-75
2023/04/19 03:30:44;;;;;;;2.40;2.40;;;18.30;64.30;;;;;;5064287;28;43510;-77
2023/04/19 03:33:14;;;;;;;2.40;2.40;;;18.30;64.20;;;;;;5054087;28;43922;-77
2023/04/19 03:35:43;;;;;;;2.60;2.60;;;18.30;64.60;;;;;;5065312;28;44198;-76
2023/04/19 03:38:13;;;;;;;2.50;2.50;;;18.30;64.60;;;;;;5064649;28;46347;-76
2023/04/19 03:40:42;;;;;;;2.30;2.30;;;18.30;64.30;;;;;;5064805;28;43442;-76
2023/04/19 03:43:14;;;;;;;2.33;2.33;;;18.30;64.40;;;;;;5064879;28;43442;-77
2023/04/19 03:45:42;;;;;;;2.50;2.50;;;18.20;64.40;;;;;;5065169;28;43661;-77
2023/04/19 03:48:10;;;;;;;2.33;2.33;;;18.20;64.60;;;;;;5064553;28;45801;-77
2023/04/19 03:50:37;;;;;;;2.50;2.50;;;18.20;65.00;;;;;;5064647;28;43540;-77
2023/04/19 03:53:06;;;;;;;2.30;2.30;;;18.20;64.80;;;;;;5064501;28;44006;-75
2023/04/19 03:55:35;;;;;;;2.80;2.80;;;18.30;64.60;;;;;;5053933;28;43541;-75
2023/04/19 03:58:04;;;;;;;2.20;2.20;;;18.40;64.30;;;;;;5064353;28;43905;-76
2023/04/19 04:00:40;;;;;;;2.73;2.53;;;18.30;64.10;;;;;;5063483;28;44031;-74
2023/04/19 04:03:08;;;;;;;2.30;2.30;;;18.30;64.40;;;;;;5061923;28;43427;-76
2023/04/19 04:05:36;;;;;;;2.40;2.40;;;18.30;64.60;;;;;;5065028;28;43459;-76
2023/04/19 04:08:04;;;;;;;2.30;2.30;;;18.30;64.40;;;;;;5065577;28;43787;-76
2023/04/19 04:10:32;;;;;;;2.20;2.20;;;18.30;64.40;;;;;;5058842;28;44420;-76
2023/04/19 04:13:02;;;;;;;2.47;2.47;;;18.30;64.60;;;;;;5064525;28;43450;-71
2023/04/19 04:15:59;;;;;;;2.40;2.27;;;18.20;64.60;;;;;;5056564;28;44112;-76
2023/04/19 04:18:27;;;;;;;2.67;2.47;;;18.20;64.90;;;;;;5061665;28;44187;-76
2023/04/19 04:20:55;;;;;;;2.30;2.30;;;18.20;64.90;;;;;;5064327;28;44439;-76
2023/04/19 04:23:28;;;;;;;2.33;2.33;;;18.20;64.70;;;;;;5066188;28;43576;-76
2023/04/19 04:26:00;;;;;;;2.40;2.40;;;18.20;64.90;;;;;;5064841;28;43600;-77
2023/04/19 04:28:41;;;;;;;2.53;2.33;;;18.20;65.60;;;;;;5061137;28;44048;-76
2023/04/19 04:31:11;;;;;;;2.47;2.37;;;18.20;65.00;;;;;;5049754;28;43495;-76
2023/04/19 04:33:41;;;;;;;2.30;2.30;;;18.10;65.10;;;;;;5066475;28;43388;-77
2023/04/19 04:36:11;;;;;;;2.50;2.50;;;18.10;64.80;;;;;;5068122;28;43371;-76
2023/04/19 04:38:40;;;;;;;2.30;2.30;;;18.20;64.80;;;;;;5066943;28;44033;-71
2023/04/19 04:41:11;;;;;;;2.33;2.33;;;18.10;64.80;;;;;;5062162;28;44968;-76
2023/04/19 04:43:48;;;;;;;2.37;2.37;;;18.10;64.90;;;;;;5069538;28;43506;-76
2023/04/19 04:46:32;;;;;;;2.33;2.33;;;18.10;64.90;;;;;;5065843;28;44189;-76
2023/04/19 04:49:01;;;;;;;2.60;2.40;;;18.10;65.10;;;;;;5068040;28;43949;-71
2023/04/19 04:51:29;;;;;;;2.50;2.30;;;18.20;65.00;;;;;;5068042;28;44846;-76
2023/04/19 04:53:57;;;;;;;2.70;2.60;;;18.30;64.70;;;;;;5067867;28;43398;-76
2023/04/19 04:56:26;;;;;;;2.50;2.50;;;18.40;63.80;;;;;;5069309;28;43587;-77
2023/04/19 04:58:55;;;;;;;2.30;2.30;;;18.40;63.70;;;;;;5067170;28;45368;-75
2023/04/19 05:01:30;;;;;;;2.60;2.60;;;18.40;63.70;;;;;;5067225;28;44732;-77
2023/04/19 05:03:58;;;;;;;2.50;2.40;;;18.40;64.10;;;;;;5051756;28;43398;-78
2023/04/19 05:06:26;;;;;;;2.40;2.40;;;18.40;64.10;;;;;;5067803;28;43941;-76
2023/04/19 05:08:54;;;;;;;2.47;2.47;;;18.40;63.90;;;;;;5069069;27;43756;-77
2023/04/19 05:11:31;;;;;;;2.30;2.30;;;18.40;64.10;;;;;;5070746;28;43968;-74
2023/04/19 05:14:01;;;;;;;2.20;2.20;;;18.30;64.20;;;;;;5067748;28;43505;-77
2023/04/19 05:16:29;;;;;;;2.47;2.47;;;18.30;64.30;;;;;;5067860;28;43379;-77
2023/04/19 05:18:57;;;;;;;2.30;2.30;;;18.30;64.60;;;;;;5056402;28;45920;-76
2023/04/19 05:21:27;;;;;;;2.20;2.20;;;18.30;64.40;;;;;;5068772;28;44598;-77
2023/04/19 05:23:56;;;;;;;2.23;2.13;;;18.30;64.50;;;;;;5067546;28;43407;-77
2023/04/19 05:26:24;;;;;;;2.20;2.20;;;18.30;64.60;;;;;;5068889;28;43996;-77
2023/04/19 05:28:53;;;;;;;2.03;2.03;;;18.20;64.50;;;;;;5065876;28;44048;-77
2023/04/19 05:31:32;;;;;;;2.47;2.47;;;18.20;64.60;;;;;;5060232;28;43411;-72
2023/04/19 05:34:12;;;;;;;2.10;2.10;;;18.20;64.80;;;;;;5066811;28;43466;-77
2023/04/19 05:36:40;;;;;;;2.60;2.60;;;18.20;64.50;;;;;;5067178;28;43597;-77
2023/04/19 05:39:08;;;;;;;2.17;2.17;;;18.20;64.50;;;;;;5066166;28;46039;-77
2023/04/19 05:41:37;;;;;;;2.30;2.20;;;18.20;64.60;;;;;;5068244;28;43398;-77
2023/04/19 05:44:05;;;;;;;2.27;2.27;;;18.20;64.60;;;;;;5066863;28;43360;-74
2023/04/19 05:46:35;;;;;;;2.50;2.40;;;18.20;64.90;;;;;;5067091;28;43687;-77
2023/04/19 05:49:05;;;;;;;2.33;2.33;;;18.20;64.90;;;;;;5066288;28;44732;-77
2023/04/19 05:51:53;;;;;;;2.43;2.43;;;18.30;64.60;;;;;;5065372;28;43442;-77
2023/04/19 05:54:34;;;;;;;2.40;2.40;;;18.40;64.30;;;;;;5066478;28;43885;-77
2023/04/19 05:57:02;;;;;;;2.20;2.20;;;18.40;64.00;;;;;;5066926;28;43407;-76
2023/04/19 05:59:32;;;;;;;2.10;2.10;;;18.40;63.80;;;;;;5066848;28;45618;-77
2023/04/19 06:02:04;;;;;;;2.27;2.27;;;18.40;64.30;;;;;;5065901;28;44722;-77
2023/04/19 06:04:32;;;;;;;2.17;2.17;;;18.40;64.30;;;;;;5066263;28;44010;-75
2023/04/19 06:07:01;;;;;;;2.10;2.10;;;18.40;64.00;;;;;;5066723;28;43490;-73
2023/04/19 06:09:32;;;;;;;2.13;2.13;;;18.40;64.20;;;;;;5067841;28;43867;-77
2023/04/19 06:12:04;;;;;;;2.20;2.10;;;18.30;64.30;;;;;;5066360;28;44404;-75
2023/04/19 06:14:32;;;;;;;1.97;1.97;;;18.30;64.40;;;;;;5066579;28;43496;-76
2023/04/19 06:17:00;;;;;;;2.20;2.20;;;18.20;64.70;;;;;;5056036;28;43962;-77
2023/04/19 06:19:32;;;;;;;2.10;2.10;;;18.20;64.60;;;;;;5069191;28;46428;-77
2023/04/19 06:22:00;;;;;;;2.20;2.20;;;18.20;64.50;;;;;;5067639;28;43426;-77
2023/04/19 06:24:28;;;;;;;2.10;2.10;;;18.20;64.50;;;;;;5068052;28;43402;-77
2023/04/19 06:26:58;;;;;;;2.30;2.30;;;18.20;64.60;;;;;;5068125;28;43466;-75
2023/04/19 06:29:26;;;;;;;2.10;2.10;;;18.10;64.60;;;;;;5067071;28;43940;-76
2023/04/19 06:31:57;;;;;;;2.07;2.07;;;18.20;65.00;;;;;;5054937;28;44659;-76
2023/04/19 06:34:25;;;;;;;2.20;2.20;;;18.20;64.80;;;;;;5066777;28;43412;-77
2023/04/19 06:36:54;;;;;;;1.97;1.97;;;18.20;64.70;;;;;;5067730;28;43408;-76
2023/04/19 06:39:22;;;;;;;2.20;2.10;;;18.10;64.60;;;;;;5067395;28;43872;-75
2023/04/19 06:41:52;;;;;;;2.30;2.30;;;18.10;64.70;;;;;;5067333;28;43423;-77
2023/04/19 06:44:25;;;;;;;2.23;2.23;;;18.10;64.90;;;;;;5060374;28;43424;-75
2023/04/19 06:46:53;;;;;;;2.13;2.13;;;18.20;65.10;;;;;;5068665;28;43368;-77
2023/04/19 06:49:24;;;;;;;2.30;2.30;;;18.20;64.80;;;;;;5049783;28;45821;-77
2023/04/19 06:51:54;;;;;;;2.13;2.13;;;18.30;64.50;;;;;;5065549;28;43383;-77
2023/04/19 06:54:24;;;;;;;2.13;2.13;;;18.40;64.20;;;;;;5051041;28;43463;-75
2023/04/19 06:56:51;;;;;;;2.03;2.03;;;18.40;63.80;;;;;;5067856;28;43557;-77
2023/04/19 06:59:20;;;;;;;2.30;2.30;;;18.40;64.00;;;;;;5065484;28;45811;-77
2023/04/19 07:01:48;;;;;;;2.20;2.10;;;18.40;64.40;;;;;;5068744;28;44440;-76
2023/04/19 07:04:17;;;;;;;2.27;2.27;;;18.40;64.20;;;;;;5065697;28;43399;-77
2023/04/19 07:06:48;;;;;;;2.10;2.10;;;18.30;64.00;;;;;;5066203;28;43453;-77
2023/04/19 07:09:17;;;;;;;2.10;2.10;;;18.30;64.20;;;;;;5074057;27;45682;-76
2023/04/19 07:11:46;;;;;;;2.33;2.33;;;18.30;64.40;;;;;;5066917;28;43507;-76
2023/04/19 07:14:15;;;;;;;2.10;2.10;;;18.20;64.50;;;;;;5066761;28;43426;-76
2023/04/19 07:16:43;;;;;;;2.03;2.03;;;18.20;64.70;;;;;;5066608;28;44063;-75
2023/04/19 07:19:11;;;;;;;2.40;2.30;;;18.20;64.50;;;;;;5066147;28;43579;-76
2023/04/19 07:21:39;;;;;;;2.10;2.10;;;18.20;64.50;;;;;;5066851;28;43441;-76
2023/04/19 07:24:07;;;;;;;1.97;1.87;;;18.20;64.60;;;;;;5066732;28;43390;-77
2023/04/19 07:26:37;;;;;;;2.30;2.30;;;18.20;64.70;;;;;;5065783;28;43599;-77
2023/04/19 07:29:05;;;;;;;2.00;2.00;;;18.20;65.60;;;;;;5064074;28;46152;-77
2023/04/19 07:31:33;;;;;;;2.13;2.13;;;18.20;64.90;;;;;;5064893;28;44903;-77
2023/04/19 07:34:01;;;;;;;2.23;2.10;;;18.30;64.70;;;;;;5066815;28;43352;-71
2023/04/19 07:36:30;;;;;;;2.10;2.10;;;18.40;64.40;;;;;;5066169;28;43370;-76
2023/04/19 07:38:58;;;;;;;2.03;2.03;;;18.40;64.20;;;;;;5066843;28;44002;-77
2023/04/19 07:41:26;;;;;;;2.10;2.10;;;18.40;64.20;;;;;;5070254;28;43390;-77
2023/04/19 07:43:55;;;;;;;2.03;2.03;;;18.30;64.30;;;;;;5064845;28;43466;-78
2023/04/19 07:46:23;;;;;;;2.30;2.30;;;18.30;64.40;;;;;;5065763;28;43431;-77
2023/04/19 07:48:51;;;;;;;1.90;1.90;;;18.30;64.30;;;;;;5066301;28;43622;-77
2023/04/19 07:51:19;;;;;;;1.93;1.93;;;18.30;64.30;;;;;;5064775;28;45409;-77
2023/04/19 07:53:48;;;;;;;1.70;1.70;;;18.30;64.50;;;;;;5064784;28;43959;-78
2023/04/19 07:56:15;;;;;;;2.00;2.00;;;18.20;64.50;;;;;;5069501;28;43590;-77
2023/04/19 07:58:43;;;;;;;1.90;1.90;;;18.20;64.80;;;;;;5066234;28;43887;-77
2023/04/19 08:01:19;;;;;;;2.10;2.10;;;18.20;64.80;;;;;;5065690;28;43521;-77
2023/04/19 08:03:47;;;;;;;2.07;2.07;;;18.20;64.60;;;;;;5064265;28;43955;-77
2023/04/19 08:06:16;;;;;;;1.93;1.93;;;18.20;64.70;;;;;;5066159;28;43597;-77
2023/04/19 08:08:45;;;;;;;2.10;2.10;;;18.20;64.80;;;;;;5066073;28;43960;-77
2023/04/19 08:11:13;;;;;;;2.50;2.50;;;18.10;64.80;;;;;;5072726;28;43435;-76
2023/04/19 08:13:41;;;;;;;2.00;2.00;;;18.10;65.00;;;;;;5066105;28;43392;-76
2023/04/19 08:16:24;;;;;;;2.10;2.10;;;18.20;64.90;;;;;;5064494;28;43477;-77
2023/04/19 08:18:58;;;;;;;2.30;2.30;;;18.30;64.60;;;;;;5062645;28;45479;-76
2023/04/19 08:21:26;;;;;;;2.40;2.30;;;18.40;64.50;;;;;;5066474;28;43621;-77
2023/04/19 08:24:07;;;;;;;2.10;2.10;;;18.30;64.20;;;;;;5059015;28;43319;-76
2023/04/19 08:26:37;;;;;;;2.00;2.00;;;18.30;64.30;;;;;;5066223;28;43784;-77
2023/04/19 08:29:06;;;;;;;2.30;2.30;;;18.30;64.80;;;;;;5060697;28;43993;-77
2023/04/19 08:31:36;;;;;;;2.10;2.10;;;18.30;64.50;;;;;;5064259;28;44694;-76
2023/04/19 08:34:04;;;;;;;1.93;1.93;;;18.30;64.40;;;;;;5065500;28;43530;-77
2023/04/19 08:36:32;;;;;;;1.87;1.87;;;18.30;64.60;;;;;;5066263;28;43496;-77
2023/04/19 08:39:13;;;;;;;2.03;2.03;;;18.20;64.60;;;;;;5066616;28;43868;-77
2023/04/19 08:42:01;;;;;;;1.90;1.90;;;18.20;64.80;;;;;;5066110;28;43944;-76
2023/04/19 08:44:37;;;;;;;1.90;1.90;;;18.20;64.90;;;;;;5059962;28;43456;-76
2023/04/19 08:47:17;;;;;;;1.97;1.97;;;18.20;64.70;;;;;;5066409;28;43546;-79
2023/04/19 08:49:57;;;;;;;1.97;1.97;;;18.20;64.90;;;;;;5065371;28;43841;-78
2023/04/19 08:52:43;;;;;;;2.00;2.00;;;18.10;64.80;;;;;;5063859;28;44981;-77
2023/04/19 08:55:25;;;;;;;2.30;2.30;;;18.10;64.90;;;;;;5065922;28;43937;-77
2023/04/19 08:57:53;;;;;;;2.20;2.20;;;18.10;65.20;;;;;;5064413;28;43376;-77
2023/04/19 09:00:22;;;;;;;2.00;2.00;;;18.10;64.90;;;;;;5063383;28;45724;-77
2023/04/19 09:02:53;;;;;;;1.90;1.90;;;18.10;65.00;;;;;;5063920;28;44899;-78
2023/04/19 09:05:21;;;;;;;2.00;2.00;;;18.10;64.90;;;;;;5065517;28;43366;-78
2023/04/19 09:07:49;;;;;;;2.20;2.20;;;18.10;65.00;;;;;;5064082;28;44095;-77
2023/04/19 09:10:18;;;;;;;2.00;2.00;;;18.10;65.10;;;;;;5064369;28;43921;-76
2023/04/19 09:13:00;;;;;;;1.80;1.80;;;18.10;65.20;;;;;;5063981;28;45152;-77
2023/04/19 09:15:36;;;;;;;2.10;2.10;;;18.20;65.10;;;;;;5068251;28;43962;-78
2023/04/19 09:18:09;;;;;;;1.90;1.90;;;18.30;64.70;;;;;;5065338;28;43418;-77
2023/04/19 09:20:37;;;;;;;2.20;2.20;;;18.30;64.40;;;;;;5067707;28;43702;-77
2023/04/19 09:23:06;;;;;;;2.23;2.23;;;18.30;64.30;;;;;;5068654;28;43395;-78
2023/04/19 09:25:35;;;;;;;2.17;2.17;;;18.30;64.60;;;;;;5068547;28;44007;-77
2023/04/19 09:28:23;;;;;;;2.30;2.30;;;18.30;64.60;;;;;;5057360;28;43981;-77
2023/04/19 09:30:51;;;;;;;1.90;1.90;;;18.30;64.40;;;;;;5067213;28;46132;-76
2023/04/19 09:33:37;;;;;;;2.10;2.10;;;18.30;64.60;;;;;;5059451;28;43452;-77
2023/04/19 09:36:05;;;;;;;1.80;1.80;;;18.20;64.60;;;;;;5067219;28;43434;-78
2023/04/19 09:38:46;;;;;;;1.97;1.97;;;18.20;64.80;;;;;;5067601;28;43581;-76
2023/04/19 09:41:14;;;;;;;2.00;2.00;;;18.20;65.10;;;;;;5068373;28;44055;-76
2023/04/19 09:43:41;;;;;;;2.13;2.13;;;18.20;64.90;;;;;;5068406;28;43463;-77
2023/04/19 09:46:30;;;;;;;2.00;2.00;;;18.20;64.80;;;;;;5064594;28;43383;-77
2023/04/19 09:49:19;;;;;;;2.00;2.00;;;18.20;64.90;;;;;;5071119;28;43661;-76
2023/04/19 09:51:57;;;;;;;2.00;2.00;;;18.10;65.00;;;;;;5068769;28;43699;-77
2023/04/19 09:54:27;;;;;;;2.03;2.03;;;18.10;65.10;;;;;;5068654;28;43351;-76
2023/04/19 09:56:55;;;;;;;1.83;1.83;;;18.10;65.20;;;;;;5068375;28;43472;-74
2023/04/19 09:59:26;;;;;;;1.90;1.90;;;18.10;64.80;;;;;;5068809;28;43431;-76
2023/04/19 10:01:54;;;;;;;2.10;2.10;;;18.10;65.00;;;;;;5066053;28;45800;-77
2023/04/19 10:04:25;;;;;;;2.00;2.00;;;18.10;65.10;;;;;;5071324;28;44602;-77
2023/04/19 10:07:13;;;;;;;2.07;2.07;;;18.10;65.10;;;;;;5067774;28;43407;-77
2023/04/19 10:09:44;;;;;;;2.00;2.00;;;18.10;65.30;;;;;;5068370;28;43403;-76
2023/04/19 10:12:23;;;;;;;1.93;1.93;;;18.10;65.40;;;;;;5067935;28;43623;-77
2023/04/19 10:15:11;;;;;;;2.00;2.00;;;18.20;65.10;;;;;;5066624;28;43371;-77
2023/04/19 10:17:39;;;;;;;1.93;1.93;;;18.30;64.70;;;;;;5066193;28;43418;-73
2023/04/19 10:20:10;;;;;;;2.07;2.07;;;18.40;64.40;;;;;;5063547;28;43393;-76
2023/04/19 10:22:40;;;;;;;1.90;1.90;;;18.40;64.20;;;;;;5067283;28;43955;-76
2023/04/19 10:25:09;;;;;;;2.03;1.90;;;18.30;64.30;;;;;;5067885;28;43470;-77
2023/04/19 10:27:37;;;;;;;1.87;1.87;;;18.30;64.60;;;;;;5061677;28;43418;-77
2023/04/19 10:30:11;;;;;;;2.27;2.07;;;18.30;64.40;;;;;;5067987;28;43382;-77
2023/04/19 10:32:40;;;;;;;2.20;2.20;;;18.30;64.40;;;;;;5063230;28;45645;-76
2023/04/19 10:35:17;;;;;;;2.20;2.20;;;18.30;64.70;;;;;;5067456;28;44022;-77
2023/04/19 10:38:03;;;;;;;1.90;1.90;;;18.20;64.80;;;;;;5067643;28;43410;-76
2023/04/19 10:40:54;;;;;;;2.10;2.10;;;18.20;65.10;;;;;;5067789;28;43430;-73
2023/04/19 10:43:23;;;;;;;2.20;2.20;;;18.20;64.90;;;;;;5065614;28;46346;-76
2023/04/19 10:45:51;;;;;;;2.03;2.03;;;18.20;65.00;;;;;;5068382;28;43549;-76
2023/04/19 10:48:32;;;;;;;1.97;1.97;;;18.20;65.10;;;;;;5067420;28;43400;-77
2023/04/19 10:51:02;;;;;;;1.80;1.80;;;18.20;65.20;;;;;;5067963;28;44059;-77
2023/04/19 10:53:46;;;;;;;2.10;2.10;;;18.10;65.20;;;;;;5067450;28;43898;-72
2023/04/19 10:56:15;;;;;;;2.10;2.10;;;18.10;65.30;;;;;;5065569;28;44694;-77
2023/04/19 10:59:23;;;;;;;1.90;1.90;;;18.20;65.10;;;;;;5067186;28;43466;-77
2023/04/19 11:01:52;;;;;;;2.10;2.00;;;18.30;64.80;;;;;;5066320;28;43917;-77
2023/04/19 11:04:22;;;;;;;1.90;1.90;;;18.30;64.50;;;;;;5066622;28;43758;-74
2023/04/19 11:07:00;;;;;;;2.60;2.40;;;18.30;64.60;;;;;;5066837;28;43519;-76
2023/04/19 11:09:30;;;;;;;2.70;2.50;;;18.30;65.00;;;;;;5066915;28;43416;-77
2023/04/19 11:11:59;;;;;;;3.10;2.60;;;18.30;64.70;;;;;;5056373;28;43438;-77
2023/04/19 11:14:28;;;;;;;3.20;2.70;;;18.20;64.70;;;;;;5065755;28;45788;-77
2023/04/19 11:16:56;;;;;;;3.17;2.83;;;18.20;64.80;;;;;;5067012;28;43422;-77
2023/04/19 11:19:27;;;;;;;5.33;3.13;;;18.20;65.00;;;;;;5062034;28;43593;-77
2023/04/19 11:21:59;;;;;;;4.43;3.37;;;18.20;65.10;;;;;;5067230;28;43490;-77
2023/04/19 11:24:30;;;;;;;5.33;3.30;;;18.10;65.30;;;;;;5067007;28;43994;-77
2023/04/19 11:27:01;;;;;;;4.60;3.37;;;18.20;65.00;;;;;;5066523;28;44008;-71
2023/04/19 11:29:29;;;;;;;3.80;3.40;;;18.20;65.10;;;;;;5066866;28;43510;-77
2023/04/19 11:31:59;;;;;;;3.80;3.30;;;18.20;65.20;;;;;;5067122;28;43795;-77
2023/04/19 11:34:27;;;;;;;4.67;4.07;;;18.10;65.20;;;;;;5066950;28;43682;-77
2023/04/19 11:36:55;;;;;;;5.40;3.73;;;18.10;65.40;;;;;;5065613;28;43454;-76
2023/04/19 11:39:25;;;;;;;6.23;4.27;;;18.10;65.50;;;;;;5066847;28;43477;-77
2023/04/19 11:41:57;;;;;;;5.97;3.67;;;18.20;65.30;;;;;;5067211;28;43408;-77
2023/04/19 11:44:25;;;;;;;6.07;3.90;;;18.30;65.00;;;;;;5066459;28;43968;-76
2023/04/19 11:47:00;;;;;;;5.23;4.20;;;18.30;64.60;;;;;;5064971;28;45286;-77
2023/04/19 11:49:29;;;;;;;6.57;4.03;;;18.30;64.40;;;;;;5066690;28;43414;-78
2023/04/19 11:51:58;;;;;;;10.07;4.40;;;18.30;64.70;;;;;;5065498;28;43485;-76
2023/04/19 11:54:27;;;;;;;9.57;4.20;;;18.30;64.80;;;;;;5060230;28;43611;-78
2023/04/19 11:57:00;;;;;;;8.23;4.50;;;18.30;64.60;;;;;;5060796;28;43963;-75
2023/04/19 11:59:29;;;;;;;6.33;4.10;;;18.30;64.60;;;;;;5064841;28;43423;-75
2023/04/19 12:01:57;;;;;;;5.93;4.20;;;18.20;64.70;;;;;;5066190;28;43894;-77
2023/04/19 12:04:26;;;;;;;6.80;4.20;;;18.20;64.90;;;;;;5065355;28;43864;-76
2023/04/19 12:06:58;;;;;;;5.97;4.10;;;18.20;65.30;;;;;;5064631;28;44669;-77
2023/04/19 12:09:27;;;;;;;6.77;4.50;;;18.10;65.10;;;;;;5068276;28;43406;-77
2023/04/19 12:11:55;;;;;;;5.97;4.40;;;18.20;65.10;;;;;;5066090;28;43515;-75
2023/04/19 12:14:25;;;;;;;6.37;4.50;;;18.20;65.10;;;;;;5065923;28;43590;-76
2023/04/19 12:17:07;;;;;;;9.47;4.93;;;18.10;65.10;;;;;;5065902;28;43507;-77
2023/04/19 12:19:36;;;;;;;7.37;4.57;;;18.10;65.20;;;;;;5063502;28;43458;-77
2023/04/19 12:22:08;;;;;;;11.07;5.10;;;18.10;65.50;;;;;;5066108;28;43432;-77
2023/04/19 12:24:38;;;;;;;10.67;4.93;;;18.10;65.20;;;;;;5064422;28;43631;-76
2023/04/19 12:27:06;;;;;;;7.03;4.63;;;18.10;65.30;;;;;;5062126;28;43481;-77
2023/04/19 12:29:34;;;;;;;7.73;5.03;;;18.10;65.20;;;;;;5063384;28;43346;-77
2023/04/19 12:32:02;;;;;;;7.73;4.60;;;18.10;65.40;;;;;;5066398;28;43397;-75
2023/04/19 12:34:30;;;;;;;10.80;5.20;;;18.10;65.50;;;;;;5064665;28;45021;-76
2023/04/19 12:37:00;;;;;;;6.20;4.93;;;18.10;65.70;;;;;;5065771;28;43376;-77
2023/04/19 12:39:28;;;;;;;6.97;4.90;;;18.20;65.50;;;;;;5066149;28;43347;-77
2023/04/19 12:41:57;;;;;;;7.37;4.83;;;18.30;65.10;;;;;;5064719;28;43610;-77
2023/04/19 12:44:25;;;;;;;6.33;4.63;;;18.40;64.80;;;;;;5063986;28;45510;-77
2023/04/19 12:46:56;;;;;;;6.40;4.90;;;18.40;64.60;;;;;;5065736;28;43349;-77
2023/04/19 12:49:24;;;;;;;7.83;4.90;;;18.30;64.60;;;;;;5065304;28;43379;-77
2023/04/19 12:51:52;;;;;;;6.53;4.63;;;18.30;64.90;;;;;;5071419;28;43952;-77
2023/04/19 12:54:23;;;;;;;6.70;4.70;;;18.30;64.70;;;;;;5067201;28;45739;-76
2023/04/19 12:56:51;;;;;;;4.90;4.37;;;18.30;64.70;;;;;;5068842;28;43526;-77
2023/04/19 12:59:20;;;;;;;4.83;4.40;;;18.20;64.80;;;;;;5069213;28;44062;-76
2023/04/19 13:01:49;;;;;;;6.87;4.90;;;18.20;65.00;;;;;;5067879;28;43353;-77
2023/04/19 13:04:17;;;;;;;8.17;4.60;;;18.10;65.20;;;;;;5078124;27;45683;-75